createdAt,value
2022-10-22T00:01:45.613Z,96985.41
2022-10-22T00:04:12.149Z,97131.00
2022-10-22T00:06:38.702Z,97131.97
2022-10-22T00:09:06.707Z,97122.06
2022-10-22T00:11:33.421Z,97126.53
2022-10-22T00:13:59.989Z,97027.88
2022-10-22T00:16:26.685Z,97117.00
2022-10-22T00:18:53.378Z,97119.63
2022-10-22T00:21:20.206Z,97120.63
2022-10-22T00:23:46.825Z,97012.78
2022-10-22T00:26:13.701Z,97003.72
2022-10-22T00:28:40.605Z,97124.06
2022-10-22T00:31:07.401Z,97129.34
2022-10-22T00:33:34.497Z,97131.00
2022-10-22T00:36:01.030Z,97124.44
2022-10-22T00:38:27.620Z,96966.25
2022-10-22T00:40:54.313Z,97127.53
2022-10-22T00:43:21.659Z,97133.63
2022-10-22T00:45:48.377Z,97089.22
2022-10-22T00:48:20.757Z,97114.53
2022-10-22T00:51:01.139Z,97122.06
2022-10-22T00:53:37.530Z,97084.06
2022-10-22T00:56:05.038Z,97125.09
2022-10-22T00:58:36.333Z,97017.16
2022-10-22T01:01:05.386Z,97026.94
2022-10-22T01:03:32.966Z,97118.78
2022-10-22T01:06:01.552Z,96960.53
2022-10-22T01:08:48.142Z,97123.28
2022-10-22T01:11:20.826Z,97118.78
2022-10-22T01:13:57.995Z,96978.88
2022-10-22T01:16:35.529Z,97036.94
2022-10-22T01:19:08.180Z,97115.38
2022-10-22T01:21:45.509Z,97110.69
2022-10-22T01:24:38.545Z,97104.00
2022-10-22T01:27:24.953Z,96992.09
2022-10-22T01:30:03.078Z,97106.44
2022-10-22T01:32:32.846Z,96962.72
2022-10-22T01:35:07.253Z,97107.25
2022-10-22T01:37:40.614Z,97112.72
2022-10-22T01:40:09.215Z,97083.94
2022-10-22T01:42:36.941Z,97116.78
2022-10-22T01:45:11.450Z,97124.53
2022-10-22T01:48:11.162Z,97098.47
2022-10-22T01:50:56.929Z,97119.63
2022-10-22T01:53:38.879Z,97121.44
2022-10-22T01:56:20.728Z,97114.53
2022-10-22T01:59:04.551Z,97102.97
2022-10-22T02:01:44.523Z,97068.84
2022-10-22T02:04:26.801Z,97103.16
2022-10-22T02:06:57.451Z,97044.34
2022-10-22T02:09:27.986Z,96992.72
2022-10-22T02:11:55.926Z,97088.56
2022-10-22T02:14:24.763Z,96906.84
2022-10-22T02:16:51.613Z,96986.34
2022-10-22T02:19:36.922Z,97064.97
2022-10-22T02:22:04.963Z,96956.31
2022-10-22T02:24:31.724Z,97073.06
2022-10-22T02:27:04.315Z,97046.16
2022-10-22T02:29:35.018Z,97069.66
2022-10-22T02:32:05.152Z,97016.94
2022-10-22T02:34:32.659Z,97066.19
2022-10-22T02:37:02.541Z,97073.28
2022-10-22T02:39:31.691Z,97037.06
2022-10-22T02:41:58.596Z,96961.69
2022-10-22T02:44:25.362Z,97087.47
2022-10-22T02:46:52.206Z,97102.47
2022-10-22T02:49:18.830Z,97076.47
2022-10-22T02:51:45.449Z,96922.84
2022-10-22T02:54:12.009Z,97101.38
2022-10-22T02:56:38.975Z,97096.09
2022-10-22T02:59:05.652Z,97104.84
2022-10-22T03:01:32.397Z,96973.94
2022-10-22T03:03:58.992Z,97104.22
2022-10-22T03:08:57.203Z,97066.72
2022-10-22T03:11:23.799Z,97109.03
2022-10-22T03:13:50.351Z,97048.13
2022-10-22T03:16:17.001Z,96949.88
2022-10-22T03:18:43.588Z,96976.56
2022-10-22T03:21:25.300Z,97107.50
2022-10-22T03:23:52.181Z,97103.41
2022-10-22T03:26:19.149Z,96969.84
2022-10-22T03:28:47.861Z,97044.91
2022-10-22T03:31:14.801Z,97057.94
2022-10-22T03:33:41.363Z,97098.69
2022-10-22T03:36:09.093Z,97103.13
2022-10-22T03:38:38.505Z,97065.84
2022-10-22T03:41:05.500Z,96971.56
2022-10-22T03:43:35.362Z,96975.25
2022-10-22T03:46:01.989Z,97103.59
2022-10-22T03:48:28.742Z,97099.94
2022-10-22T03:50:55.294Z,97114.78
2022-10-22T03:53:22.007Z,97123.13
2022-10-22T03:55:48.977Z,97125.75
2022-10-22T03:58:15.614Z,97115.22
2022-10-22T04:00:42.243Z,97020.28
2022-10-22T04:03:08.844Z,97113.56
2022-10-22T04:05:35.419Z,97117.69
2022-10-22T04:08:02.002Z,97110.03
2022-10-22T04:10:28.579Z,97136.78
2022-10-22T04:12:55.193Z,97091.75
2022-10-22T04:15:22.023Z,97156.31
2022-10-22T04:17:48.760Z,96957.53
2022-10-22T04:20:15.323Z,97158.78
2022-10-22T04:22:41.922Z,97168.31
2022-10-22T04:25:08.802Z,97176.41
2022-10-22T04:27:35.838Z,97034.72
2022-10-22T04:30:04.186Z,97169.13
2022-10-22T04:32:30.762Z,97058.31
2022-10-22T04:34:57.510Z,97084.22
2022-10-22T04:37:24.185Z,97156.56
2022-10-22T04:39:50.745Z,96995.81
2022-10-22T04:42:17.442Z,97176.47
2022-10-22T04:44:44.028Z,97107.44
2022-10-22T04:47:10.642Z,97182.78
2022-10-22T04:49:37.238Z,97181.13
2022-10-22T04:52:03.843Z,97066.31
2022-10-22T04:54:32.984Z,97033.28
2022-10-22T04:57:00.115Z,97176.69
2022-10-22T04:59:26.806Z,97175.84
2022-10-22T05:01:53.391Z,97081.56
2022-10-22T05:04:19.909Z,97180.13
2022-10-22T05:06:47.146Z,97170.56
2022-10-22T05:09:16.224Z,97045.72
2022-10-22T05:11:48.786Z,97158.75
2022-10-22T05:14:23.876Z,97203.50
2022-10-22T05:16:51.282Z,97220.94
2022-10-22T05:19:29.485Z,97213.03
2022-10-22T05:21:58.827Z,97222.59
2022-10-22T05:24:26.576Z,97220.56
2022-10-22T05:26:54.933Z,97228.47
2022-10-22T05:29:22.438Z,97223.19
2022-10-22T05:31:49.050Z,97116.28
2022-10-22T05:34:15.771Z,97196.69
2022-10-22T05:36:42.542Z,97171.47
2022-10-22T05:39:09.237Z,97123.97
2022-10-22T05:41:35.831Z,97245.56
2022-10-22T05:44:03.230Z,97136.16
2022-10-22T05:46:33.443Z,97236.84
2022-10-22T05:49:02.573Z,97236.69
2022-10-22T05:51:31.383Z,97239.31
2022-10-22T05:54:01.254Z,97258.56
2022-10-22T05:56:30.286Z,97261.22
2022-10-22T05:58:57.585Z,97134.25
2022-10-22T06:01:29.887Z,97269.75
2022-10-22T06:03:59.132Z,97237.56
2022-10-22T06:06:30.259Z,97269.75
2022-10-22T06:09:20.519Z,97262.69
2022-10-22T06:11:47.879Z,97264.50
2022-10-22T06:14:15.138Z,97205.03
2022-10-22T06:16:41.892Z,97233.84
2022-10-22T06:19:11.202Z,97268.47
2022-10-22T06:21:37.801Z,97199.75
2022-10-22T06:24:04.996Z,97298.59
2022-10-22T06:26:32.036Z,97267.22
2022-10-22T06:28:59.612Z,97262.94
2022-10-22T06:31:27.061Z,97108.53
2022-10-22T06:33:53.785Z,97157.88
2022-10-22T06:36:23.129Z,97162.03
2022-10-22T06:38:56.597Z,97274.59
2022-10-22T06:41:25.764Z,97274.59
2022-10-22T06:43:57.234Z,97154.59
2022-10-22T06:46:24.952Z,97289.44
2022-10-22T06:48:54.291Z,97247.91
2022-10-22T06:51:23.726Z,97305.69
2022-10-22T06:53:50.359Z,97299.41
2022-10-22T06:56:19.570Z,97309.59
2022-10-22T06:58:51.070Z,97122.69
2022-10-22T07:01:20.427Z,97299.94
2022-10-22T07:03:47.518Z,97159.59
2022-10-22T07:06:14.954Z,97288.69
2022-10-22T07:08:42.125Z,97346.81
2022-10-22T07:11:09.801Z,97326.59
2022-10-22T07:13:36.981Z,97190.94
2022-10-22T07:16:04.944Z,97344.06
2022-10-22T07:18:32.677Z,97313.69
2022-10-22T07:20:59.636Z,97354.78
2022-10-22T07:23:27.061Z,97364.63
2022-10-22T07:25:53.766Z,97371.13
2022-10-22T07:28:21.096Z,97375.69
2022-10-22T07:30:47.726Z,97369.66
2022-10-22T07:33:14.918Z,97362.66
2022-10-22T07:35:42.315Z,97359.91
2022-10-22T07:38:09.061Z,97298.19
2022-10-22T07:40:36.285Z,97366.75
2022-10-22T07:43:03.119Z,97366.22
2022-10-22T07:45:29.802Z,97375.88
2022-10-22T07:47:56.357Z,97369.47
2022-10-22T07:50:22.944Z,97364.63
2022-10-22T07:52:49.562Z,97343.22
2022-10-22T07:55:16.158Z,97379.09
2022-10-22T07:57:42.762Z,97384.47
2022-10-22T08:00:10.319Z,97393.06
2022-10-22T08:02:39.894Z,97288.41
2022-10-22T08:05:07.445Z,97270.28
2022-10-22T08:07:33.979Z,97392.97
2022-10-22T08:10:00.592Z,97408.94
2022-10-22T08:12:27.747Z,97406.94
2022-10-22T08:14:54.623Z,97402.47
2022-10-22T08:17:21.212Z,97382.41
2022-10-22T08:19:47.759Z,97401.44
2022-10-22T08:22:14.361Z,97278.44
2022-10-22T08:24:41.398Z,97408.19
2022-10-22T08:27:07.999Z,97422.31
2022-10-22T08:29:34.565Z,97419.69
2022-10-22T08:32:02.827Z,97424.03
2022-10-22T08:34:30.885Z,97426.91
2022-10-22T08:36:57.562Z,97415.53
2022-10-22T08:39:24.166Z,97314.41
2022-10-22T08:41:56.513Z,97359.25
2022-10-22T08:44:39.049Z,97284.72
2022-10-22T08:47:24.282Z,97417.81
2022-10-22T08:49:53.545Z,97288.94
2022-10-22T08:52:20.679Z,97326.63
2022-10-22T08:54:55.563Z,97344.47
2022-10-22T08:57:40.779Z,97410.88
2022-10-22T09:00:46.261Z,97409.69
2022-10-22T09:03:49.787Z,97289.47
2022-10-22T09:06:24.498Z,97417.94
2022-10-22T09:08:52.760Z,97420.00
2022-10-22T09:11:33.107Z,97421.84
2022-10-22T09:14:02.929Z,97422.69
2022-10-22T09:17:02.058Z,97427.16
2022-10-22T09:19:43.799Z,97422.84
2022-10-22T09:22:27.348Z,97330.81
2022-10-22T09:25:11.684Z,97301.22
2022-10-22T09:27:38.204Z,97284.47
2022-10-22T09:30:05.482Z,97336.91
2022-10-22T09:32:33.063Z,97429.38
2022-10-22T09:34:59.663Z,97426.69
2022-10-22T09:37:28.669Z,97430.19
2022-10-22T09:39:57.322Z,97441.66
2022-10-22T09:42:23.882Z,97434.28
2022-10-22T09:44:59.201Z,97441.59
2022-10-22T09:48:00.531Z,97321.78
2022-10-22T09:50:48.687Z,97451.19
2022-10-22T09:53:27.014Z,97450.78
2022-10-22T09:55:59.616Z,97450.56
2022-10-22T09:58:27.121Z,97458.94
2022-10-22T10:00:58.464Z,97463.44
2022-10-22T10:03:28.930Z,97466.28
2022-10-22T10:06:01.570Z,97260.81
2022-10-22T10:08:31.788Z,97331.16
2022-10-22T10:11:19.649Z,97474.44
2022-10-22T10:13:53.447Z,97471.56
2022-10-22T10:16:44.144Z,97474.41
2022-10-22T10:19:29.310Z,97476.00
2022-10-22T10:22:14.517Z,97475.75
2022-10-22T10:25:22.841Z,97478.94
2022-10-22T10:27:54.135Z,97365.91
2022-10-22T10:30:24.714Z,97475.56
2022-10-22T10:33:08.471Z,97465.34
2022-10-22T10:35:47.102Z,97475.25
2022-10-22T10:38:43.224Z,97482.66
2022-10-22T10:41:25.374Z,97326.16
2022-10-22T10:44:33.279Z,97475.56
2022-10-22T10:47:12.337Z,97468.00
2022-10-22T10:49:38.876Z,97482.78
2022-10-22T10:52:32.571Z,97462.31
2022-10-22T10:55:15.340Z,97466.94
2022-10-22T10:58:20.338Z,97471.59
2022-10-22T11:00:55.597Z,97323.84
2022-10-22T11:03:40.388Z,97468.22
2022-10-22T11:06:12.165Z,97472.34
2022-10-22T11:09:11.095Z,97462.53
2022-10-22T11:12:00.997Z,97334.75
2022-10-22T11:14:48.518Z,97343.47
2022-10-22T11:17:18.394Z,97461.16
2022-10-22T11:19:57.806Z,97464.22
2022-10-22T11:22:28.357Z,97360.59
2022-10-22T11:25:13.626Z,97487.78
2022-10-22T11:28:11.265Z,97465.25
2022-10-22T11:30:43.441Z,97463.91
2022-10-22T11:33:18.918Z,97390.19
2022-10-22T11:35:47.070Z,97357.56
2022-10-22T11:38:17.361Z,97467.75
2022-10-22T11:40:51.937Z,97457.44
2022-10-22T11:43:52.976Z,97387.63
2022-10-22T11:46:19.644Z,97461.59
2022-10-22T11:49:02.692Z,97458.88
2022-10-22T11:51:31.946Z,97462.03
2022-10-22T11:53:58.655Z,97319.28
2022-10-22T11:56:27.345Z,97383.97
2022-10-22T11:58:55.397Z,97346.50
2022-10-22T12:01:23.736Z,97403.53
2022-10-22T12:03:53.607Z,97394.78
2022-10-22T12:06:25.339Z,97464.16
2022-10-22T12:08:54.765Z,97461.66
2022-10-22T12:11:39.537Z,97457.94
2022-10-22T12:14:29.821Z,97463.38
2022-10-22T12:17:09.702Z,97428.59
2022-10-22T12:19:39.416Z,97453.16
2022-10-22T12:22:17.067Z,97451.88
2022-10-22T12:24:51.747Z,97301.56
2022-10-22T12:27:34.640Z,97452.38
2022-10-22T12:30:02.958Z,97445.25
2022-10-22T12:32:39.000Z,97330.31
2022-10-22T12:35:18.010Z,97443.78
2022-10-22T12:37:45.056Z,97450.78
2022-10-22T12:40:18.909Z,97443.91
2022-10-22T12:43:12.354Z,97449.00
2022-10-22T12:45:40.290Z,97322.22
2022-10-22T12:48:17.394Z,97306.06
2022-10-22T12:50:48.546Z,97425.88
2022-10-22T12:53:17.719Z,97440.81
2022-10-22T12:55:49.464Z,97439.69
2022-10-22T12:58:25.432Z,97418.41
2022-10-22T13:01:02.167Z,97416.91
2022-10-22T13:03:38.460Z,97443.34
2022-10-22T13:06:24.258Z,97430.72
2022-10-22T13:09:00.116Z,97441.91
2022-10-22T13:11:39.807Z,97398.31
2022-10-22T13:14:28.465Z,97434.56
2022-10-22T13:17:19.320Z,97436.38
2022-10-22T13:19:47.809Z,97442.03
2022-10-22T13:22:23.645Z,97437.22
2022-10-22T13:24:51.197Z,97445.03
2022-10-22T13:27:17.990Z,97440.91
2022-10-22T13:29:44.944Z,97441.09
2022-10-22T13:32:33.831Z,97438.34
2022-10-22T13:35:02.616Z,97302.19
2022-10-22T13:37:32.469Z,97435.31
2022-10-22T13:39:59.048Z,97445.06
2022-10-22T13:42:25.646Z,97390.81
2022-10-22T13:44:52.213Z,97443.72
2022-10-22T13:47:28.020Z,97248.34
2022-10-22T13:49:58.498Z,97330.34
2022-10-22T13:52:29.556Z,97426.63
2022-10-22T13:54:56.122Z,97442.75
2022-10-22T13:57:22.858Z,97437.00
2022-10-22T13:59:49.538Z,97445.38
2022-10-22T14:02:17.326Z,97425.31
2022-10-22T14:04:47.275Z,97448.78
2022-10-22T14:07:17.514Z,97413.06
2022-10-22T14:09:44.105Z,97463.28
2022-10-22T14:12:16.136Z,97454.25
2022-10-22T14:14:43.260Z,97369.56
2022-10-22T14:17:16.691Z,97411.28
2022-10-22T14:19:46.585Z,97447.78
2022-10-22T14:22:17.894Z,97444.69
2022-10-22T14:24:45.613Z,97444.91
2022-10-22T14:27:14.236Z,97451.28
2022-10-22T14:29:41.453Z,97446.56
2022-10-22T14:32:16.693Z,97382.50
2022-10-22T14:34:43.315Z,97343.78
2022-10-22T14:37:18.904Z,97446.78
2022-10-22T14:39:47.039Z,97445.56
2022-10-22T14:42:14.464Z,97447.41
2022-10-22T14:44:41.080Z,97454.78
2022-10-22T14:47:07.695Z,97457.00
2022-10-22T14:49:34.385Z,97276.94
2022-10-22T14:52:01.025Z,97350.81
2022-10-22T14:54:28.319Z,97440.91
2022-10-22T14:56:54.818Z,97450.72
2022-10-22T14:59:21.374Z,97457.44
2022-10-22T15:01:47.913Z,97462.59
2022-10-22T15:04:15.033Z,97397.13
2022-10-22T15:06:41.663Z,97465.72
2022-10-22T15:09:08.284Z,97472.91
2022-10-22T15:11:34.892Z,97366.03
2022-10-22T15:14:01.479Z,97450.91
2022-10-22T15:16:28.061Z,97461.72
2022-10-22T15:18:54.625Z,97468.09
2022-10-22T15:21:23.012Z,97449.34
2022-10-22T15:23:49.761Z,97415.25
2022-10-22T15:26:16.962Z,97463.50
2022-10-22T15:28:43.595Z,97465.94
2022-10-22T15:31:13.288Z,97476.97
2022-10-22T15:33:41.822Z,97478.41
2022-10-22T15:36:16.170Z,97403.28
2022-10-22T15:38:42.756Z,97386.13
2022-10-22T15:41:12.322Z,97493.13
2022-10-22T15:43:38.984Z,97419.53
2022-10-22T15:46:19.237Z,97488.19
2022-10-22T15:48:46.345Z,97491.84
2022-10-22T15:51:15.924Z,97500.00
2022-10-22T15:53:43.114Z,97437.94
2022-10-22T15:56:11.771Z,97495.81
2022-10-22T15:58:38.348Z,97497.41
2022-10-22T16:01:07.331Z,97442.97
2022-10-22T16:03:34.577Z,97504.25
2022-10-22T16:06:01.495Z,97507.00
2022-10-22T16:08:29.198Z,97502.47
2022-10-22T16:10:55.768Z,97508.31
2022-10-22T16:13:24.176Z,97509.06
2022-10-22T16:15:51.564Z,97515.91
2022-10-22T16:18:18.873Z,97520.88
2022-10-22T16:20:45.704Z,97530.50
2022-10-22T16:23:12.305Z,97443.44
2022-10-22T16:25:42.440Z,97548.09
2022-10-22T16:28:10.733Z,97539.84
2022-10-22T16:30:38.903Z,97549.34
2022-10-22T16:33:06.739Z,97553.59
2022-10-22T16:35:33.445Z,97555.78
2022-10-22T16:38:00.040Z,97479.81
2022-10-22T16:40:26.671Z,97559.44
2022-10-22T16:42:53.225Z,97552.25
2022-10-22T16:45:19.744Z,97555.50
2022-10-22T16:47:47.028Z,97416.25
2022-10-22T16:50:13.641Z,97557.75
2022-10-22T16:52:40.168Z,97483.81
2022-10-22T16:55:07.191Z,97420.66
2022-10-22T16:57:34.034Z,97461.59
2022-10-22T17:00:00.551Z,97577.13
2022-10-22T17:02:27.105Z,97451.69
2022-10-22T17:04:53.728Z,97554.47
2022-10-22T17:07:20.287Z,97458.44
2022-10-22T17:09:46.895Z,97482.00
2022-10-22T17:12:13.668Z,97477.94
2022-10-22T17:14:40.305Z,97575.69
2022-10-22T17:17:06.924Z,97591.53
2022-10-22T17:19:34.240Z,97528.09
2022-10-22T17:22:00.837Z,97592.72
2022-10-22T17:24:27.401Z,97596.47
2022-10-22T17:26:54.031Z,97500.41
2022-10-22T17:29:21.940Z,97562.88
2022-10-22T17:31:50.116Z,97607.06
2022-10-22T17:34:17.594Z,97609.63
2022-10-22T17:36:44.255Z,97509.28
2022-10-22T17:39:15.309Z,97603.31
2022-10-22T17:41:41.837Z,97555.19
2022-10-22T17:44:12.283Z,97612.66
2022-10-22T17:46:39.276Z,97618.50
2022-10-22T17:49:13.054Z,97617.38
2022-10-22T17:51:40.190Z,97528.19
2022-10-22T17:54:09.018Z,97622.97
2022-10-22T17:56:37.669Z,97607.56
2022-10-22T17:59:04.346Z,97623.03
2022-10-22T18:01:34.557Z,97659.50
2022-10-22T18:04:03.554Z,97624.06
2022-10-22T18:06:30.954Z,97628.25
2022-10-22T18:08:57.886Z,97633.38
2022-10-22T18:11:27.002Z,97596.09
2022-10-22T18:13:55.593Z,97587.41
2022-10-22T18:16:22.481Z,97627.03
2022-10-22T18:18:51.584Z,97629.22
2022-10-22T18:21:19.024Z,97627.75
2022-10-22T18:23:46.285Z,97614.94
2022-10-22T18:26:14.046Z,97622.34
2022-10-22T18:28:40.971Z,97633.06
2022-10-22T18:31:10.048Z,97627.16
2022-10-22T18:33:37.207Z,97566.56
2022-10-22T18:36:05.806Z,97632.41
2022-10-22T18:38:32.649Z,97634.75
2022-10-22T18:40:59.284Z,97544.75
2022-10-22T18:43:25.906Z,97638.25
2022-10-22T18:45:52.761Z,97634.31
2022-10-22T18:48:20.610Z,97638.78
2022-10-22T18:50:47.337Z,97584.44
2022-10-22T18:53:16.103Z,97637.81
2022-10-22T18:55:42.898Z,97645.06
2022-10-22T18:58:09.491Z,97608.44
2022-10-22T19:00:36.821Z,97636.94
2022-10-22T19:03:03.496Z,97592.56
2022-10-22T19:05:30.646Z,97653.38
2022-10-22T19:07:57.293Z,97581.72
2022-10-22T19:10:23.899Z,97653.56
2022-10-22T19:12:50.553Z,97653.91
2022-10-22T19:15:17.260Z,97663.28
2022-10-22T19:17:44.141Z,97638.81
2022-10-22T19:20:13.649Z,97660.66
2022-10-22T19:22:40.266Z,97633.19
2022-10-22T19:25:09.753Z,97663.31
2022-10-22T19:27:39.679Z,97670.88
2022-10-22T19:30:07.052Z,97535.88
2022-10-22T19:32:34.388Z,97684.03
2022-10-22T19:35:00.971Z,97676.66
2022-10-22T19:37:27.815Z,97674.66
2022-10-22T19:39:54.352Z,97683.22
2022-10-22T19:42:20.935Z,97569.03
2022-10-22T19:44:47.524Z,97683.84
2022-10-22T19:47:15.221Z,97695.56
2022-10-22T19:49:42.532Z,97578.41
2022-10-22T19:52:09.402Z,97618.19
2022-10-22T19:54:40.636Z,97680.56
2022-10-22T19:57:08.322Z,97647.63
2022-10-22T19:59:34.956Z,97684.03
2022-10-22T20:02:02.182Z,97557.50
2022-10-22T20:04:29.180Z,97517.19
2022-10-22T20:06:55.754Z,97682.84
2022-10-22T20:09:22.992Z,97685.13
2022-10-22T20:11:49.711Z,97572.91
2022-10-22T20:14:16.256Z,97563.38
2022-10-22T20:16:43.198Z,97699.06
2022-10-22T20:19:13.393Z,97693.31
2022-10-22T20:21:40.427Z,97571.56
2022-10-22T20:24:07.032Z,97686.22
2022-10-22T20:26:34.351Z,97575.97
2022-10-22T20:29:00.922Z,97640.75
2022-10-22T20:31:29.537Z,97694.72
2022-10-22T20:34:01.201Z,97561.53
2022-10-22T20:36:29.507Z,97692.88
2022-10-22T20:39:01.847Z,97580.47
2022-10-22T20:41:29.385Z,97692.19
2022-10-22T20:43:56.334Z,97547.03
2022-10-22T20:46:29.368Z,97547.03
2022-10-22T20:49:05.494Z,97688.38
2022-10-22T20:51:32.086Z,97570.88
2022-10-22T20:53:58.710Z,97583.53
2022-10-22T20:56:25.692Z,97699.22
2022-10-22T20:59:03.806Z,97644.91
2022-10-22T21:01:36.940Z,97688.69
2022-10-22T21:04:04.409Z,97564.56
2022-10-22T21:06:31.032Z,97642.22
2022-10-22T21:08:57.696Z,97519.38
2022-10-22T21:11:24.457Z,97687.03
2022-10-22T21:13:51.600Z,97500.69
2022-10-22T21:16:19.543Z,97651.97
2022-10-22T21:18:47.253Z,97624.91
2022-10-22T21:21:16.897Z,97690.31
2022-10-22T21:23:43.726Z,97691.00
2022-10-22T21:26:10.515Z,97694.59
2022-10-22T21:28:37.647Z,97696.56
2022-10-22T21:31:06.409Z,97686.38
2022-10-22T21:33:39.107Z,97627.19
2022-10-22T21:36:06.885Z,97701.63
2022-10-22T21:38:34.594Z,97614.97
2022-10-22T21:41:05.839Z,97706.38
2022-10-22T21:43:32.242Z,97699.78
2022-10-22T21:46:08.210Z,97712.22
2022-10-22T21:48:36.658Z,97632.56
2022-10-22T21:51:15.301Z,97703.38
2022-10-22T21:53:42.623Z,97700.75
2022-10-22T21:56:17.141Z,97716.34
2022-10-22T21:58:43.966Z,97532.81
2022-10-22T22:01:11.603Z,97701.44
2022-10-22T22:03:38.502Z,97697.16
2022-10-22T22:06:06.630Z,97693.56
2022-10-22T22:08:34.041Z,97565.13
2022-10-22T22:11:09.564Z,97541.59
2022-10-22T22:13:36.810Z,97705.19
2022-10-22T22:16:06.898Z,97701.88
2022-10-22T22:18:34.898Z,97700.41
2022-10-22T22:21:04.934Z,97661.84
2022-10-22T22:23:31.616Z,97701.53
2022-10-22T22:26:01.772Z,97698.22
2022-10-22T22:28:32.439Z,97680.81
2022-10-22T22:30:59.218Z,97596.56
2022-10-22T22:33:26.364Z,97633.75
2022-10-22T22:35:53.228Z,97694.13
2022-10-22T22:38:19.759Z,97692.47
2022-10-22T22:40:46.298Z,97553.19
2022-10-22T22:43:12.879Z,97688.03
2022-10-22T22:45:40.698Z,97698.53
2022-10-22T22:48:07.813Z,97570.84
2022-10-22T22:50:36.585Z,97611.84
2022-10-22T22:53:03.244Z,97650.03
2022-10-22T22:55:31.941Z,97563.63
2022-10-22T22:57:58.802Z,97601.94
2022-10-22T23:00:25.309Z,97646.88
2022-10-22T23:02:55.884Z,97678.47
2022-10-22T23:05:22.482Z,97688.00
2022-10-22T23:07:49.048Z,97560.72
2022-10-22T23:10:15.800Z,97577.00
2022-10-22T23:12:42.740Z,97548.56
2022-10-22T23:15:09.832Z,97677.66
2022-10-22T23:20:08.719Z,97671.75
2022-10-22T23:22:35.339Z,97606.91
2022-10-22T23:25:01.895Z,97660.25
2022-10-22T23:27:28.489Z,97608.72
2022-10-22T23:29:55.034Z,97647.56
2022-10-22T23:32:21.627Z,97658.09
2022-10-22T23:34:48.391Z,97512.25
2022-10-22T23:37:14.906Z,97662.50
2022-10-22T23:39:41.553Z,97655.63
2022-10-22T23:42:08.123Z,97651.34
2022-10-22T23:44:34.714Z,97647.91
2022-10-22T23:47:01.255Z,97648.88
2022-10-22T23:49:28.315Z,97647.25
2022-10-22T23:51:54.853Z,97467.53
2022-10-22T23:54:21.498Z,97636.91
2022-10-22T23:56:48.054Z,97458.19
